createdAt,value
2022-11-25T00:01:10.065Z,8.96
2022-11-25T00:04:00.138Z,8.99
2022-11-25T00:06:51.034Z,9.10
2022-11-25T00:09:40.361Z,9.10
2022-11-25T00:12:29.807Z,9.08
2022-11-25T00:15:19.152Z,9.04
2022-11-25T00:18:08.734Z,9.10
2022-11-25T00:20:58.354Z,9.08
2022-11-25T00:23:53.419Z,9.20
2022-11-25T00:26:42.794Z,9.23
2022-11-25T00:29:32.584Z,9.33
2022-11-25T00:32:22.076Z,9.38
2022-11-25T00:35:11.376Z,9.39
2022-11-25T00:38:00.904Z,9.32
2022-11-25T00:41:15.218Z,9.35
2022-11-25T00:44:22.378Z,9.38
2022-11-25T00:47:15.299Z,9.34
2022-11-25T00:50:05.709Z,9.33
2022-11-25T00:52:55.172Z,9.35
2022-11-25T00:56:02.082Z,9.30
2022-11-25T00:58:55.395Z,9.22
2022-11-25T01:01:45.001Z,9.21
2022-11-25T01:04:35.152Z,9.19
2022-11-25T01:07:25.198Z,9.17
2022-11-25T01:10:14.555Z,9.17
2022-11-25T01:13:03.968Z,9.15
2022-11-25T01:15:54.690Z,9.22
2022-11-25T01:18:44.088Z,9.15
2022-11-25T01:21:35.513Z,9.15
2022-11-25T01:24:26.458Z,9.23
2022-11-25T01:27:16.484Z,9.23
2022-11-25T01:30:07.222Z,9.19
2022-11-25T01:32:57.860Z,9.24
2022-11-25T01:35:49.180Z,9.23
2022-11-25T01:38:38.630Z,9.29
2022-11-25T01:41:30.190Z,9.33
2022-11-25T01:44:25.869Z,9.35
2022-11-25T01:47:20.101Z,9.37
2022-11-25T01:50:14.344Z,9.40
2022-11-25T01:53:11.879Z,9.29
2022-11-25T01:56:04.882Z,9.25
2022-11-25T01:58:56.902Z,9.30
2022-11-25T02:01:46.361Z,9.22
2022-11-25T02:04:38.867Z,9.25
2022-11-25T02:07:34.059Z,9.21
2022-11-25T02:10:30.723Z,9.22
2022-11-25T02:13:20.628Z,9.20
2022-11-25T02:16:10.287Z,9.15
2022-11-25T02:18:59.690Z,9.19
2022-11-25T02:21:57.855Z,9.18
2022-11-25T02:24:52.918Z,9.22
2022-11-25T02:27:47.565Z,9.23
2022-11-25T02:30:39.242Z,9.31
2022-11-25T02:33:29.384Z,9.35
2022-11-25T02:36:23.865Z,9.34
2022-11-25T02:39:13.999Z,9.35
2022-11-25T02:42:05.173Z,9.25
2022-11-25T02:44:55.885Z,9.25
2022-11-25T02:47:46.600Z,9.16
2022-11-25T02:50:35.882Z,9.13
2022-11-25T02:53:25.158Z,9.16
2022-11-25T02:56:17.033Z,9.11
2022-11-25T02:59:06.566Z,9.21
2022-11-25T03:01:57.326Z,9.27
2022-11-25T03:04:48.535Z,9.34
2022-11-25T03:07:37.975Z,9.39
2022-11-25T03:10:27.874Z,9.28
2022-11-25T03:13:17.264Z,9.19
2022-11-25T03:16:07.411Z,9.14
2022-11-25T03:18:58.075Z,9.04
2022-11-25T03:21:47.303Z,9.06
2022-11-25T03:24:36.777Z,9.04
2022-11-25T03:27:30.147Z,8.91
2022-11-25T03:30:22.844Z,9.02
2022-11-25T03:33:14.926Z,8.93
2022-11-25T03:36:06.284Z,9.02
2022-11-25T03:38:55.924Z,9.04
2022-11-25T03:41:45.928Z,9.05
2022-11-25T03:44:36.011Z,8.92
2022-11-25T03:47:25.755Z,9.03
2022-11-25T03:50:17.497Z,9.00
2022-11-25T03:53:10.324Z,8.92
2022-11-25T03:55:59.718Z,9.00
2022-11-25T03:58:48.987Z,8.93
2022-11-25T04:01:44.004Z,8.87
2022-11-25T04:04:34.254Z,8.89
2022-11-25T04:07:24.030Z,8.81
2022-11-25T04:10:15.347Z,8.87
2022-11-25T04:13:04.801Z,8.85
2022-11-25T04:15:59.437Z,8.86
2022-11-25T04:18:49.483Z,8.86
2022-11-25T04:21:39.028Z,8.85
2022-11-25T04:24:28.633Z,8.76
2022-11-25T04:27:20.545Z,8.79
2022-11-25T04:30:12.565Z,8.71
2022-11-25T04:33:04.205Z,8.76
2022-11-25T04:35:53.782Z,8.72
2022-11-25T04:38:43.375Z,8.71
2022-11-25T04:41:32.886Z,8.67
2022-11-25T04:44:24.309Z,8.76
2022-11-25T04:47:14.596Z,8.59
2022-11-25T04:50:04.300Z,8.62
2022-11-25T04:52:55.566Z,8.75
2022-11-25T04:55:45.995Z,8.66
2022-11-25T04:58:55.392Z,8.75
2022-11-25T05:01:46.131Z,8.69
2022-11-25T05:04:53.990Z,8.68
2022-11-25T05:07:44.406Z,8.73
2022-11-25T05:10:34.891Z,8.70
2022-11-25T05:13:24.219Z,8.74
2022-11-25T05:16:13.931Z,8.68
2022-11-25T05:19:05.265Z,8.71
2022-11-25T05:21:54.943Z,8.68
2022-11-25T05:24:44.434Z,8.56
2022-11-25T05:27:34.716Z,8.62
2022-11-25T05:30:29.646Z,8.62
2022-11-25T05:33:19.268Z,8.64
2022-11-25T05:36:11.847Z,8.41
2022-11-25T05:39:09.329Z,8.63
2022-11-25T05:42:17.258Z,8.62
2022-11-25T05:45:09.131Z,8.59
2022-11-25T05:47:59.110Z,8.63
2022-11-25T05:50:50.580Z,8.56
2022-11-25T05:53:44.369Z,8.55
2022-11-25T05:56:33.794Z,8.53
2022-11-25T05:59:41.494Z,8.54
2022-11-25T06:02:41.556Z,8.58
2022-11-25T06:05:36.608Z,8.45
2022-11-25T06:08:26.632Z,8.60
2022-11-25T06:11:19.130Z,8.64
2022-11-25T06:14:08.912Z,8.64
2022-11-25T06:16:58.179Z,8.58
2022-11-25T06:20:11.554Z,8.64
2022-11-25T06:23:01.872Z,8.61
2022-11-25T06:25:55.080Z,8.67
2022-11-25T06:28:48.653Z,8.67
2022-11-25T06:31:37.984Z,8.67
2022-11-25T06:34:47.557Z,8.71
2022-11-25T06:37:49.483Z,8.57
2022-11-25T06:40:38.776Z,8.70
2022-11-25T06:43:28.165Z,8.70
2022-11-25T06:46:25.215Z,8.68
2022-11-25T06:49:15.679Z,8.83
2022-11-25T06:52:05.129Z,8.80
2022-11-25T06:54:54.557Z,8.78
2022-11-25T06:57:44.191Z,8.82
2022-11-25T07:00:33.502Z,8.80
2022-11-25T07:03:24.271Z,8.74
2022-11-25T07:06:14.581Z,8.77
2022-11-25T07:09:04.620Z,8.83
2022-11-25T07:11:54.062Z,8.83
2022-11-25T07:14:43.400Z,8.77
2022-11-25T07:17:33.724Z,8.81
2022-11-25T07:20:28.109Z,8.81
2022-11-25T07:23:17.415Z,8.79
2022-11-25T07:26:09.530Z,8.85
2022-11-25T07:29:02.048Z,8.77
2022-11-25T07:31:51.743Z,8.74
2022-11-25T07:34:41.223Z,8.72
2022-11-25T07:37:31.938Z,8.76
2022-11-25T07:40:21.967Z,8.77
2022-11-25T07:43:11.239Z,8.82
2022-11-25T07:46:12.047Z,8.74
2022-11-25T07:49:03.730Z,8.74
2022-11-25T07:51:55.170Z,8.82
2022-11-25T07:54:45.943Z,8.80
2022-11-25T07:57:35.289Z,8.88
2022-11-25T08:00:24.939Z,8.87
2022-11-25T08:03:14.329Z,8.94
2022-11-25T08:06:04.301Z,8.97
2022-11-25T08:08:56.009Z,9.04
2022-11-25T08:11:48.574Z,9.00
2022-11-25T08:14:38.392Z,9.07
2022-11-25T08:17:27.737Z,9.14
2022-11-25T08:20:17.567Z,9.19
2022-11-25T08:23:07.401Z,9.18
2022-11-25T08:25:57.002Z,9.23
2022-11-25T08:28:48.432Z,9.27
2022-11-25T08:31:40.032Z,9.27
2022-11-25T08:34:29.406Z,9.43
2022-11-25T08:37:23.552Z,9.37
2022-11-25T08:40:14.139Z,9.50
2022-11-25T08:43:04.713Z,9.56
2022-11-25T08:45:58.716Z,9.54
2022-11-25T08:48:48.258Z,9.67
2022-11-25T08:51:40.198Z,9.68
2022-11-25T08:54:29.458Z,9.65
2022-11-25T08:57:18.877Z,9.80
2022-11-25T09:00:10.064Z,9.82
2022-11-25T09:03:04.152Z,9.74
2022-11-25T09:05:55.602Z,9.80
2022-11-25T09:08:45.892Z,9.84
2022-11-25T09:11:35.513Z,9.79
2022-11-25T09:14:24.964Z,9.90
2022-11-25T09:17:16.489Z,9.92
2022-11-25T09:20:15.221Z,9.92
2022-11-25T09:23:06.039Z,10.15
2022-11-25T09:25:57.172Z,10.17
2022-11-25T09:28:46.427Z,10.17
2022-11-25T09:31:36.838Z,10.23
2022-11-25T09:34:26.271Z,10.22
2022-11-25T09:37:17.072Z,10.22
2022-11-25T09:40:10.161Z,10.18
2022-11-25T09:43:36.814Z,10.19
2022-11-25T09:46:46.331Z,10.27
2022-11-25T09:49:58.677Z,10.30
2022-11-25T09:53:00.638Z,10.32
2022-11-25T09:55:55.924Z,10.38
2022-11-25T09:58:54.752Z,10.42
2022-11-25T10:01:51.123Z,10.44
2022-11-25T10:04:48.381Z,10.48
2022-11-25T10:07:44.355Z,10.62
2022-11-25T10:10:44.932Z,10.62
2022-11-25T10:13:46.160Z,10.57
2022-11-25T10:16:51.282Z,10.57
2022-11-25T10:19:54.261Z,10.67
2022-11-25T10:22:46.705Z,10.67
2022-11-25T10:25:42.874Z,10.75
2022-11-25T10:28:36.585Z,10.90
2022-11-25T10:31:33.837Z,10.85
2022-11-25T10:34:35.696Z,10.90
2022-11-25T10:37:31.994Z,10.96
2022-11-25T10:40:21.363Z,10.98
2022-11-25T10:43:14.942Z,11.03
2022-11-25T10:46:43.700Z,10.99
2022-11-25T10:49:51.610Z,11.16
2022-11-25T10:52:47.999Z,11.18
2022-11-25T10:55:37.674Z,11.19
2022-11-25T10:58:35.762Z,11.29
2022-11-25T11:01:26.367Z,11.29
2022-11-25T11:04:18.492Z,11.42
2022-11-25T11:07:10.982Z,11.41
2022-11-25T11:10:21.662Z,11.43
2022-11-25T11:13:25.613Z,11.45
2022-11-25T11:16:31.005Z,11.60
2022-11-25T11:19:24.943Z,11.47
2022-11-25T11:22:19.353Z,11.58
2022-11-25T11:25:27.168Z,11.61
2022-11-25T11:28:40.122Z,11.72
2022-11-25T11:31:36.526Z,12.35
2022-11-25T11:35:03.247Z,13.25
2022-11-25T11:37:58.087Z,13.90
2022-11-25T11:40:55.206Z,14.52
2022-11-25T11:44:02.177Z,15.01
2022-11-25T11:47:20.670Z,15.37
2022-11-25T11:50:28.594Z,15.77
2022-11-25T11:53:31.459Z,15.84
2022-11-25T11:56:35.680Z,16.10
2022-11-25T11:59:56.904Z,16.35
2022-11-25T12:03:00.675Z,15.93
2022-11-25T12:05:54.912Z,15.44
2022-11-25T12:08:50.989Z,15.43
2022-11-25T12:11:46.101Z,15.13
2022-11-25T12:14:43.541Z,14.80
2022-11-25T12:17:41.130Z,14.62
2022-11-25T12:20:40.788Z,14.56
2022-11-25T12:23:45.441Z,14.18
2022-11-25T12:26:45.857Z,14.26
2022-11-25T12:29:42.645Z,14.23
2022-11-25T12:32:58.347Z,14.21
2022-11-25T12:36:01.031Z,14.18
2022-11-25T12:39:04.310Z,14.18
2022-11-25T12:41:58.921Z,14.37
2022-11-25T12:44:59.496Z,14.31
2022-11-25T12:47:48.885Z,14.39
2022-11-25T12:50:54.991Z,14.54
2022-11-25T12:53:56.471Z,14.62
2022-11-25T12:57:18.681Z,14.67
2022-11-25T13:00:40.628Z,14.69
2022-11-25T13:03:57.732Z,14.74
2022-11-25T13:07:30.132Z,14.60
2022-11-25T13:10:47.905Z,14.48
2022-11-25T13:13:55.454Z,14.10
2022-11-25T13:16:50.493Z,13.86
2022-11-25T13:19:40.539Z,13.44
2022-11-25T13:22:30.228Z,13.37
2022-11-25T13:25:29.272Z,13.24
2022-11-25T13:28:32.881Z,13.09
2022-11-25T13:31:25.570Z,12.97
2022-11-25T13:34:34.938Z,12.85
2022-11-25T13:37:40.159Z,12.76
2022-11-25T13:40:39.611Z,12.70
2022-11-25T13:43:29.050Z,12.67
2022-11-25T13:46:33.984Z,12.63
2022-11-25T13:49:35.489Z,12.66
2022-11-25T13:52:40.511Z,12.57
2022-11-25T13:55:37.278Z,12.64
2022-11-25T13:58:29.675Z,12.65
2022-11-25T14:01:30.003Z,12.39
2022-11-25T14:04:33.980Z,12.47
2022-11-25T14:07:38.413Z,12.44
2022-11-25T14:10:46.329Z,12.38
2022-11-25T14:14:00.038Z,12.40
2022-11-25T14:17:08.301Z,12.41
2022-11-25T14:20:15.264Z,12.45
2022-11-25T14:23:54.643Z,12.43
2022-11-25T14:26:50.437Z,12.39
2022-11-25T14:29:46.768Z,12.55
2022-11-25T14:32:44.157Z,12.63
2022-11-25T14:35:45.357Z,12.70
2022-11-25T14:38:44.864Z,12.65
2022-11-25T14:41:40.070Z,12.65
2022-11-25T14:44:39.926Z,12.60
2022-11-25T14:47:37.603Z,12.49
2022-11-25T14:50:36.063Z,12.40
2022-11-25T14:53:26.648Z,12.42
2022-11-25T14:56:18.347Z,12.41
2022-11-25T14:59:11.109Z,12.31
2022-11-25T15:02:02.412Z,12.30
2022-11-25T15:04:52.574Z,12.24
2022-11-25T15:07:44.538Z,12.17
2022-11-25T15:10:44.105Z,12.18
2022-11-25T15:13:38.957Z,12.20
2022-11-25T15:16:34.780Z,12.15
2022-11-25T15:19:33.379Z,12.10
2022-11-25T15:22:24.790Z,12.07
2022-11-25T15:25:18.996Z,12.07
2022-11-25T15:28:17.870Z,12.03
2022-11-25T15:31:14.181Z,11.97
2022-11-25T15:34:06.678Z,12.01
2022-11-25T15:36:57.488Z,12.04
2022-11-25T15:39:47.338Z,12.00
2022-11-25T15:42:36.741Z,11.98
2022-11-25T15:45:28.685Z,11.98
2022-11-25T15:48:24.679Z,11.91
2022-11-25T15:51:35.250Z,11.86
2022-11-25T15:54:29.752Z,11.86
2022-11-25T15:57:22.524Z,11.93
2022-11-25T16:00:18.337Z,11.91
2022-11-25T16:03:21.169Z,11.78
2022-11-25T16:06:22.978Z,11.84
2022-11-25T16:09:25.346Z,11.82
2022-11-25T16:12:19.153Z,11.82
2022-11-25T16:15:18.506Z,11.76
2022-11-25T16:18:38.526Z,11.75
2022-11-25T16:21:25.707Z,11.74
2022-11-25T16:24:47.394Z,11.60
2022-11-25T16:27:39.449Z,11.58
2022-11-25T16:30:29.791Z,11.53
2022-11-25T16:33:19.783Z,11.61
2022-11-25T16:36:10.411Z,11.58
2022-11-25T16:38:59.745Z,11.65
2022-11-25T16:42:01.610Z,11.59
2022-11-25T16:44:53.737Z,11.56
2022-11-25T16:47:43.037Z,11.52
2022-11-25T16:50:32.423Z,11.54
2022-11-25T16:53:21.733Z,11.50
2022-11-25T16:56:15.699Z,11.44
2022-11-25T16:59:05.954Z,11.48
2022-11-25T17:01:57.203Z,11.45
2022-11-25T17:04:47.194Z,11.48
2022-11-25T17:07:36.662Z,11.47
2022-11-25T17:10:28.197Z,11.49
2022-11-25T17:13:23.327Z,11.41
2022-11-25T17:16:19.304Z,11.41
2022-11-25T17:19:17.189Z,11.53
2022-11-25T17:22:17.383Z,11.54
2022-11-25T17:25:07.706Z,11.58
2022-11-25T17:27:57.933Z,11.58
2022-11-25T17:30:49.770Z,11.60
2022-11-25T17:33:42.410Z,11.67
2022-11-25T17:36:33.422Z,11.69
2022-11-25T17:39:24.210Z,11.73
2022-11-25T17:42:16.103Z,11.65
2022-11-25T17:45:13.001Z,11.58
2022-11-25T17:48:02.358Z,11.71
2022-11-25T17:50:51.669Z,11.80
2022-11-25T17:53:43.530Z,11.71
2022-11-25T17:56:32.973Z,11.68
2022-11-25T17:59:27.832Z,11.77
2022-11-25T18:02:20.251Z,11.73
2022-11-25T18:05:16.922Z,11.75
2022-11-25T18:08:06.417Z,11.77
2022-11-25T18:10:57.781Z,11.81
2022-11-25T18:13:48.584Z,11.81
2022-11-25T18:16:37.935Z,11.89
2022-11-25T18:19:27.445Z,11.83
2022-11-25T18:22:19.539Z,11.82
2022-11-25T18:25:11.429Z,11.81
2022-11-25T18:28:04.764Z,11.83
2022-11-25T18:30:57.281Z,11.86
2022-11-25T18:33:46.775Z,11.87
2022-11-25T18:36:36.019Z,11.96
2022-11-25T18:39:25.244Z,11.99
2022-11-25T18:42:26.520Z,12.00
2022-11-25T18:45:21.522Z,12.01
2022-11-25T18:48:17.078Z,12.06
2022-11-25T18:51:07.302Z,12.08
2022-11-25T18:53:56.556Z,12.10
2022-11-25T18:56:47.813Z,12.08
2022-11-25T18:59:38.466Z,12.08
2022-11-25T19:02:29.186Z,12.13
2022-11-25T19:05:21.945Z,12.15
2022-11-25T19:08:11.301Z,12.16
2022-11-25T19:11:00.641Z,12.23
2022-11-25T19:13:53.403Z,12.13
2022-11-25T19:16:43.764Z,12.26
2022-11-25T19:19:37.750Z,12.22
2022-11-25T19:22:27.082Z,12.32
2022-11-25T19:25:17.531Z,12.29
2022-11-25T19:28:06.934Z,12.26
2022-11-25T19:31:03.303Z,12.24
2022-11-25T19:33:53.452Z,12.38
2022-11-25T19:36:44.211Z,12.37
2022-11-25T19:39:37.632Z,12.39
2022-11-25T19:42:28.471Z,12.32
2022-11-25T19:45:20.191Z,12.27
2022-11-25T19:48:15.436Z,12.32
2022-11-25T19:51:04.869Z,12.37
2022-11-25T19:53:55.596Z,12.33
2022-11-25T19:56:45.534Z,12.37
2022-11-25T19:59:34.858Z,12.45
2022-11-25T20:02:27.583Z,12.48
2022-11-25T20:05:21.434Z,12.47
2022-11-25T20:08:19.358Z,12.48
2022-11-25T20:11:13.231Z,12.50
2022-11-25T20:14:02.652Z,12.57
2022-11-25T20:16:52.289Z,12.57
2022-11-25T20:19:42.082Z,12.48
2022-11-25T20:22:35.942Z,12.48
2022-11-25T20:25:25.791Z,12.57
2022-11-25T20:28:19.497Z,12.49
2022-11-25T20:31:13.930Z,12.59
2022-11-25T20:34:03.474Z,12.66
2022-11-25T20:36:52.993Z,12.71
2022-11-25T20:39:44.254Z,12.62
2022-11-25T20:42:33.944Z,12.62
2022-11-25T20:45:24.884Z,12.63
2022-11-25T20:48:14.399Z,12.59
2022-11-25T20:51:07.732Z,12.58
2022-11-25T20:54:02.294Z,12.71
2022-11-25T20:56:52.013Z,12.65
2022-11-25T20:59:42.102Z,12.64
2022-11-25T21:02:33.036Z,12.59
2022-11-25T21:05:23.087Z,12.62
2022-11-25T21:08:19.058Z,12.70
2022-11-25T21:11:08.724Z,12.69
2022-11-25T21:13:58.187Z,12.65
2022-11-25T21:16:48.512Z,12.75
2022-11-25T21:19:39.331Z,12.74
2022-11-25T21:22:28.594Z,12.72
2022-11-25T21:25:21.274Z,12.75
2022-11-25T21:28:17.462Z,12.78
2022-11-25T21:31:11.244Z,12.77
2022-11-25T21:34:02.497Z,12.69
2022-11-25T21:36:54.830Z,12.69
2022-11-25T21:39:44.485Z,12.74
2022-11-25T21:42:35.079Z,12.71
2022-11-25T21:45:25.036Z,12.73
2022-11-25T21:48:20.889Z,12.76
2022-11-25T21:51:13.331Z,12.70
2022-11-25T21:54:04.118Z,12.82
2022-11-25T21:56:53.553Z,12.82
2022-11-25T21:59:43.186Z,12.79
2022-11-25T22:02:32.925Z,12.78
2022-11-25T22:05:25.925Z,12.77
2022-11-25T22:08:15.344Z,12.86
2022-11-25T22:11:10.678Z,12.84
2022-11-25T22:14:01.031Z,12.88
2022-11-25T22:16:50.607Z,12.85
2022-11-25T22:19:40.149Z,12.74
2022-11-25T22:22:29.738Z,12.91
2022-11-25T22:25:19.391Z,12.95
2022-11-25T22:28:13.995Z,12.94
2022-11-25T22:31:08.681Z,12.88
2022-11-25T22:33:58.164Z,12.86
2022-11-25T22:36:48.158Z,12.91
2022-11-25T22:39:37.451Z,12.92
2022-11-25T22:42:30.864Z,12.94
2022-11-25T22:45:32.149Z,12.90
2022-11-25T22:48:28.332Z,12.97
2022-11-25T22:51:22.606Z,12.88
2022-11-25T22:54:13.351Z,12.97
2022-11-25T22:57:02.822Z,12.88
2022-11-25T22:59:52.127Z,12.98
2022-11-25T23:02:42.943Z,12.98
2022-11-25T23:05:35.038Z,12.86
2022-11-25T23:08:27.048Z,12.87
2022-11-25T23:11:20.848Z,12.95
2022-11-25T23:14:10.139Z,12.96
2022-11-25T23:16:59.793Z,13.03
2022-11-25T23:19:51.400Z,13.03
2022-11-25T23:22:41.011Z,12.95
2022-11-25T23:25:30.345Z,13.06
2022-11-25T23:28:20.059Z,13.10
2022-11-25T23:31:12.994Z,13.13
2022-11-25T23:34:02.372Z,13.04
2022-11-25T23:36:53.487Z,13.11
2022-11-25T23:39:42.953Z,13.08
2022-11-25T23:42:33.238Z,13.06
2022-11-25T23:45:25.858Z,13.09
2022-11-25T23:48:15.631Z,13.11
2022-11-25T23:51:05.093Z,13.09
2022-11-25T23:53:57.869Z,13.09
2022-11-25T23:56:47.279Z,13.29
2022-11-25T23:59:36.748Z,13.28
